Time;durP1;ratioP1;P1;durP2;ratioP2;P2;SDS_P1;SDS_P2;PMS_P1;PMS_P2;Temp;Humidity;BMP_temperature;BMP_pressure;BME280_temperature;BME280_humidity;BME280_pressure;Samples;Min_cycle;Max_cycle;Signal;HPM_P1;HPM_P2
2022/01/12 00:01:10;;;;;;;1.60;0.63;;;26.00;91.90;;;;;;5073193;28;20063;-55
2022/01/12 00:03:38;;;;;;;4.63;1.30;;;26.00;91.60;;;;;;5073174;28;20162;-54
2022/01/12 00:06:06;;;;;;;2.60;1.00;;;26.10;91.60;;;;;;5072667;28;20472;-54
2022/01/12 00:08:34;;;;;;;4.07;1.23;;;26.10;91.70;;;;;;5073297;28;20036;-56
2022/01/12 00:11:03;;;;;;;4.25;1.20;;;26.20;91.50;;;;;;5072870;28;20021;-58
2022/01/12 00:13:32;;;;;;;5.82;1.35;;;26.20;91.80;;;;;;5073021;28;20102;-58
2022/01/12 00:16:01;;;;;;;3.13;1.10;;;26.30;91.60;;;;;;5072240;28;20020;-60
2022/01/12 00:18:30;;;;;;;3.25;0.88;;;26.30;91.50;;;;;;5072644;28;20028;-56
2022/01/12 00:20:58;;;;;;;3.67;1.00;;;26.30;91.50;;;;;;5072836;28;20112;-60
2022/01/12 00:23:26;;;;;;;3.03;0.73;;;26.40;90.80;;;;;;5072813;28;20032;-59
2022/01/12 00:33:57;;;;;;;2.75;0.93;;;26.50;90.70;;;;;;5073008;28;20100;-52
2022/01/12 00:36:25;;;;;;;3.92;1.10;;;26.60;90.60;;;;;;5072588;28;20383;-63
2022/01/12 00:38:52;;;;;;;3.40;1.13;;;26.60;90.90;;;;;;5072517;28;20033;-56
2022/01/12 00:41:20;;;;;;;2.30;1.02;;;26.60;90.50;;;;;;5072599;28;20017;-56
2022/01/12 00:43:55;;;;;;;1.70;0.80;;;26.60;90.70;;;;;;5072410;28;20102;-61
2022/01/12 00:46:24;;;;;;;0.73;0.68;;;26.70;90.70;;;;;;5072471;28;20027;-58
2022/01/12 00:48:54;;;;;;;2.67;1.25;;;26.70;90.90;;;;;;5073523;28;20035;-58
2022/01/12 00:51:26;;;;;;;2.05;0.80;;;26.60;91.10;;;;;;5076715;28;20027;-57
2022/01/12 00:53:54;;;;;;;2.47;1.00;;;26.70;91.20;;;;;;5076530;28;20048;-58
2022/01/12 00:56:22;;;;;;;4.07;1.02;;;26.70;90.90;;;;;;5076703;28;20025;-58
2022/01/12 00:58:50;;;;;;;2.38;1.02;;;26.80;90.70;;;;;;5076511;28;20032;-54
2022/01/12 01:01:22;;;;;;;2.50;1.00;;;26.80;90.20;;;;;;5076365;28;20035;-59
2022/01/12 01:03:50;;;;;;;2.40;0.80;;;26.90;90.30;;;;;;5076131;28;20036;-53
2022/01/12 01:06:18;;;;;;;3.35;0.90;;;26.90;90.70;;;;;;5076234;28;20032;-55
2022/01/12 01:08:48;;;;;;;2.65;1.10;;;26.90;90.40;;;;;;5076632;28;20048;-55
2022/01/12 01:11:16;;;;;;;1.83;0.60;;;26.90;90.30;;;;;;5075322;28;20039;-59
2022/01/12 01:14:10;;;;;;;2.05;0.88;;;27.00;90.20;;;;;;5076132;28;20391;-56
2022/01/12 01:27:33;;;;;;;4.32;1.27;;;27.20;88.40;;;;;;5076079;28;20146;-54
2022/01/12 01:30:01;;;;;;;3.50;1.27;;;27.30;88.10;;;;;;5075580;28;20390;-57
2022/01/12 01:32:28;;;;;;;3.58;1.10;;;27.40;89.10;;;;;;5076092;28;20020;-53
2022/01/12 01:34:55;;;;;;;3.25;1.35;;;27.50;88.90;;;;;;5075802;28;20028;-54
2022/01/12 01:37:23;;;;;;;2.67;1.25;;;27.50;88.30;;;;;;5075502;28;20025;-56
2022/01/12 01:39:50;;;;;;;2.75;0.90;;;27.60;88.20;;;;;;5075553;28;20035;-59
2022/01/12 01:42:24;;;;;;;1.33;0.77;;;27.60;88.40;;;;;;5075783;28;20078;-54
2022/01/12 01:55:40;;;;;;;4.30;1.17;;;27.60;89.40;;;;;;5075539;28;20067;-57
2022/01/12 01:58:08;;;;;;;2.40;0.77;;;27.80;86.40;;;;;;5075099;28;20052;-52
2022/01/12 02:00:36;;;;;;;3.40;1.35;;;27.80;86.20;;;;;;5074592;28;20368;-57
2022/01/12 02:03:03;;;;;;;2.53;1.20;;;27.90;86.10;;;;;;5075550;28;20031;-55
2022/01/12 02:05:31;;;;;;;3.88;0.98;;;28.00;86.60;;;;;;5075283;28;20409;-55
2022/01/12 02:08:00;;;;;;;5.78;0.90;;;28.00;87.80;;;;;;5075107;28;20078;-53
2022/01/12 02:10:27;;;;;;;2.47;1.40;;;28.00;87.10;;;;;;5074983;28;20021;-58
2022/01/12 02:12:56;;;;;;;2.50;1.05;;;28.10;87.60;;;;;;5075528;28;20024;-56
2022/01/12 02:15:26;;;;;;;5.00;1.02;;;28.10;85.20;;;;;;5075509;28;20030;-55
2022/01/12 02:35:12;;;;;;;1.38;0.70;;;28.20;85.80;;;;;;5077328;28;20111;-58
2022/01/12 02:39:43;;;;;;;2.65;0.90;;;28.50;87.00;;;;;;5075087;28;20541;-57
2022/01/12 02:40:01;;;;;;;1.50;0.80;;;28.40;86.60;;;;;;5074640;28;20044;-51
2022/01/12 02:42:32;;;;;;;1.85;0.70;;;28.50;85.70;;;;;;5074570;28;20031;-60
2022/01/12 02:50:45;;;;;;;1.83;0.77;;;28.60;85.80;;;;;;5074725;28;20119;-54
2022/01/12 02:56:00;;;;;;;2.80;0.90;;;28.60;86.10;;;;;;5074295;28;20102;-55
2022/01/12 02:58:28;;;;;;;1.73;0.65;;;28.70;86.10;;;;;;5074346;28;20043;-52
2022/01/12 03:03:37;;;;;;;1.88;0.90;;;28.70;85.70;;;;;;5073719;28;20054;-56
2022/01/12 03:06:07;;;;;;;1.95;0.90;;;28.70;85.50;;;;;;5073844;28;20020;-56
2022/01/12 03:08:37;;;;;;;2.35;1.00;;;28.70;86.10;;;;;;5074239;28;20482;-54
2022/01/12 03:11:10;;;;;;;1.67;1.00;;;28.70;85.90;;;;;;5073337;28;20028;-55
2022/01/12 03:13:38;;;;;;;2.92;0.93;;;28.70;86.00;;;;;;5073988;28;20024;-55
2022/01/12 03:16:19;;;;;;;1.95;0.93;;;28.60;86.00;;;;;;5073324;28;20371;-54
2022/01/12 03:18:48;;;;;;;2.63;1.08;;;28.60;86.50;;;;;;5072610;28;20139;-57
2022/01/12 03:21:18;;;;;;;1.65;0.68;;;28.50;86.20;;;;;;5073980;28;20034;-54
2022/01/12 03:23:46;;;;;;;2.38;0.88;;;28.50;86.10;;;;;;5073882;28;20074;-46
2022/01/12 03:26:14;;;;;;;2.08;0.73;;;28.50;86.80;;;;;;5072926;28;20531;-55
2022/01/12 03:28:43;;;;;;;0.65;0.40;;;28.40;87.00;;;;;;5056137;28;20078;-59
2022/01/12 03:31:20;;;;;;;1.92;0.80;;;28.40;86.10;;;;;;5073664;28;20420;-53
2022/01/12 03:39:10;;;;;;;2.78;0.90;;;28.20;88.30;;;;;;5073952;28;20086;-58
2022/01/12 03:41:38;;;;;;;2.50;0.73;;;28.20;88.10;;;;;;5073670;28;20043;-55
2022/01/12 03:44:09;;;;;;;2.53;1.00;;;28.20;88.10;;;;;;5073018;28;20034;-52
2022/01/12 03:46:48;;;;;;;1.75;0.98;;;28.10;89.00;;;;;;5072822;28;20793;-53
2022/01/12 03:49:17;;;;;;;2.03;0.82;;;28.10;89.20;;;;;;5073260;28;20032;-55
2022/01/12 03:51:45;;;;;;;1.00;0.63;;;28.00;89.00;;;;;;5072845;28;20099;-46
2022/01/12 03:54:12;;;;;;;0.95;0.50;;;28.00;89.20;;;;;;5072541;28;20088;-49
2022/01/12 03:56:40;;;;;;;3.45;0.70;;;28.00;89.60;;;;;;5073088;28;20029;-59
2022/01/12 03:59:08;;;;;;;1.98;1.00;;;27.90;90.00;;;;;;5073365;28;20043;-59
2022/01/12 04:01:38;;;;;;;2.00;0.70;;;27.90;89.50;;;;;;5073201;28;20406;-53
2022/01/12 04:04:10;;;;;;;1.67;0.70;;;27.80;89.40;;;;;;5073139;28;20034;-58
2022/01/12 04:09:23;;;;;;;1.30;0.68;;;27.80;90.10;;;;;;5073005;28;20490;-54
2022/01/12 04:11:51;;;;;;;1.88;0.68;;;27.70;90.10;;;;;;5071813;28;20017;-61
2022/01/12 04:14:18;;;;;;;3.85;0.98;;;27.70;90.30;;;;;;5071506;28;20035;-51
2022/01/12 04:16:46;;;;;;;1.83;0.82;;;27.70;90.30;;;;;;5072990;28;20044;-54
2022/01/12 04:19:13;;;;;;;1.50;0.70;;;27.60;90.50;;;;;;5071739;28;20391;-57
2022/01/12 04:21:46;;;;;;;2.72;1.10;;;27.60;90.50;;;;;;5072691;28;20452;-57
2022/01/12 04:24:15;;;;;;;1.90;0.70;;;27.60;90.40;;;;;;5071065;28;20100;-57
2022/01/12 04:26:43;;;;;;;1.10;0.70;;;27.60;90.30;;;;;;5073012;28;20103;-57
2022/01/12 04:29:10;;;;;;;3.60;0.50;;;27.60;90.70;;;;;;5073156;28;20101;-56
2022/01/12 04:31:39;;;;;;;1.23;0.70;;;27.50;90.10;;;;;;5072740;28;20036;-56
2022/01/12 04:34:08;;;;;;;2.20;1.13;;;27.50;90.20;;;;;;5073282;28;20071;-55
2022/01/12 04:36:36;;;;;;;1.83;0.52;;;27.50;90.60;;;;;;5072799;28;20033;-64
2022/01/12 04:39:04;;;;;;;1.52;0.80;;;27.40;90.30;;;;;;5073602;28;20041;-56
2022/01/12 04:41:32;;;;;;;2.88;1.13;;;27.40;90.60;;;;;;5072953;28;20025;-54
2022/01/12 04:44:02;;;;;;;1.83;0.65;;;27.40;90.50;;;;;;5072791;28;20040;-62
2022/01/12 04:46:38;;;;;;;1.50;0.82;;;27.40;90.80;;;;;;5073008;28;20455;-53
2022/01/12 04:49:25;;;;;;;3.00;1.00;;;27.30;90.80;;;;;;5072518;28;20095;-55
2022/01/12 04:51:53;;;;;;;0.80;0.50;;;27.20;91.00;;;;;;5072913;28;20396;-59
2022/01/12 04:54:20;;;;;;;0.98;0.60;;;27.20;91.00;;;;;;5072523;28;20063;-61
2022/01/12 04:56:48;;;;;;;2.67;1.15;;;27.20;91.20;;;;;;5072490;28;20028;-60
2022/01/12 04:59:15;;;;;;;1.80;0.60;;;27.10;91.10;;;;;;5072543;28;20459;-57
2022/01/12 05:01:51;;;;;;;2.40;1.05;;;27.10;91.60;;;;;;5072589;28;20043;-60
2022/01/12 05:12:52;;;;;;;1.58;0.90;;;26.90;92.00;;;;;;5035948;28;20040;-51
2022/01/12 05:15:27;;;;;;;1.45;0.55;;;26.90;91.90;;;;;;5072798;28;20036;-60
2022/01/12 05:17:55;;;;;;;0.90;0.50;;;26.80;91.90;;;;;;5073690;28;20399;-55
2022/01/12 05:20:23;;;;;;;3.30;0.80;;;26.80;92.00;;;;;;5074079;28;20028;-56
2022/01/12 05:22:52;;;;;;;2.60;0.80;;;26.80;92.20;;;;;;5072936;28;20024;-61
2022/01/12 05:25:22;;;;;;;2.05;0.75;;;26.70;92.30;;;;;;5072449;28;20021;-61
2022/01/12 05:27:50;;;;;;;3.28;1.23;;;26.70;92.30;;;;;;5070805;28;20033;-59
2022/01/12 05:30:18;;;;;;;2.38;0.88;;;26.70;92.30;;;;;;5070837;28;20102;-61
2022/01/12 05:32:46;;;;;;;1.90;0.95;;;26.70;92.30;;;;;;5070892;28;20048;-60
2022/01/12 05:35:17;;;;;;;1.35;0.60;;;26.70;92.30;;;;;;5073618;28;20386;-54
2022/01/12 05:37:45;;;;;;;2.55;0.80;;;26.70;92.40;;;;;;5075753;28;20039;-57
2022/01/12 05:40:16;;;;;;;2.28;0.60;;;26.60;92.40;;;;;;5075314;28;20032;-59
2022/01/12 05:42:44;;;;;;;2.42;0.65;;;26.60;92.50;;;;;;5075929;28;20017;-57
2022/01/12 05:45:12;;;;;;;1.73;0.63;;;26.60;92.40;;;;;;5075275;28;20364;-57
2022/01/12 05:50:14;;;;;;;1.48;0.57;;;26.50;92.60;;;;;;5076110;28;20542;-55
2022/01/12 05:52:41;;;;;;;3.97;0.68;;;26.50;92.70;;;;;;5075057;28;20444;-57
2022/01/12 05:55:10;;;;;;;2.47;0.93;;;26.50;92.40;;;;;;5076307;28;20128;-53
2022/01/12 05:57:38;;;;;;;5.57;1.05;;;26.50;92.20;;;;;;5074736;28;20029;-56
2022/01/12 06:00:08;;;;;;;2.72;1.00;;;26.40;92.20;;;;;;5075652;28;20418;-53
2022/01/12 06:02:36;;;;;;;4.65;1.00;;;26.40;91.90;;;;;;5075712;28;20028;-57
2022/01/12 06:05:04;;;;;;;4.45;1.38;;;26.40;91.90;;;;;;5075822;28;20043;-64
2022/01/12 06:07:32;;;;;;;8.40;1.23;;;26.30;91.90;;;;;;5075656;28;20025;-55
2022/01/12 06:09:59;;;;;;;5.43;1.10;;;26.20;91.90;;;;;;5074130;28;20445;-53
2022/01/12 06:12:26;;;;;;;4.57;1.52;;;26.10;92.50;;;;;;5074979;28;20036;-62
2022/01/12 06:14:54;;;;;;;7.07;1.50;;;26.10;92.50;;;;;;5075129;28;20473;-65
2022/01/12 06:17:22;;;;;;;6.15;1.30;;;26.00;91.80;;;;;;5075183;28;20047;-64
2022/01/12 06:19:50;;;;;;;5.63;1.30;;;25.90;90.90;;;;;;5074948;28;20043;-59
2022/01/12 06:22:18;;;;;;;6.03;1.50;;;25.80;91.40;;;;;;5076105;28;20020;-62
2022/01/12 06:24:45;;;;;;;5.75;1.92;;;25.80;91.30;;;;;;5075517;28;20153;-56
2022/01/12 06:27:16;;;;;;;6.90;1.42;;;25.80;92.00;;;;;;5075787;28;20434;-62
2022/01/12 06:29:51;;;;;;;5.05;1.63;;;25.90;92.10;;;;;;5075376;28;20108;-59
2022/01/12 06:32:19;;;;;;;4.20;1.30;;;25.80;92.00;;;;;;5075537;28;20024;-58
2022/01/12 06:34:46;;;;;;;7.53;1.63;;;25.80;92.30;;;;;;5075408;28;20492;-56
2022/01/12 06:37:14;;;;;;;8.40;1.92;;;25.80;92.70;;;;;;5074723;28;20083;-56
2022/01/12 06:39:42;;;;;;;8.77;1.80;;;25.80;92.80;;;;;;5074518;28;20030;-59
2022/01/12 06:42:09;;;;;;;5.47;1.40;;;25.90;92.80;;;;;;5074618;28;20025;-67
2022/01/12 06:44:36;;;;;;;3.85;1.35;;;25.80;92.80;;;;;;5073503;28;20071;-67
2022/01/12 06:47:04;;;;;;;5.50;1.27;;;25.90;93.00;;;;;;5073715;28;20020;-65
2022/01/12 06:49:32;;;;;;;4.47;1.65;;;25.90;93.00;;;;;;5072720;28;20027;-63
2022/01/12 06:52:00;;;;;;;5.80;1.52;;;25.90;93.20;;;;;;5074265;28;20032;-60
2022/01/12 06:54:27;;;;;;;11.02;2.28;;;25.90;93.30;;;;;;5074565;28;20041;-52
2022/01/12 06:56:55;;;;;;;5.50;1.50;;;25.80;93.50;;;;;;5074763;28;20375;-66
2022/01/12 06:59:25;;;;;;;11.20;1.85;;;25.80;93.70;;;;;;5074775;28;20036;-56
2022/01/12 07:01:53;;;;;;;5.53;1.25;;;25.80;94.00;;;;;;5073366;28;20036;-58
2022/01/12 07:04:20;;;;;;;8.98;1.85;;;25.80;93.90;;;;;;5074338;28;20034;-65
2022/01/12 07:06:48;;;;;;;6.95;1.52;;;25.80;94.00;;;;;;5073356;28;20463;-61
2022/01/12 07:09:15;;;;;;;7.82;2.00;;;25.80;94.00;;;;;;5074856;28;20486;-58
2022/01/12 07:11:43;;;;;;;5.63;1.77;;;25.80;93.80;;;;;;5073260;28;20389;-58
2022/01/12 07:14:10;;;;;;;4.30;1.30;;;25.70;93.70;;;;;;5073745;28;20024;-61
2022/01/12 07:16:40;;;;;;;6.13;1.40;;;25.70;93.60;;;;;;5074647;28;20032;-61
2022/01/12 07:19:09;;;;;;;3.92;1.50;;;25.70;93.60;;;;;;5073293;28;20428;-56
2022/01/12 07:21:36;;;;;;;4.63;1.42;;;25.70;93.40;;;;;;5074474;28;20017;-59
2022/01/12 07:24:05;;;;;;;3.90;1.10;;;25.70;93.30;;;;;;5073826;28;20028;-65
2022/01/12 07:26:32;;;;;;;5.68;1.30;;;25.70;93.00;;;;;;5074547;28;20025;-66
2022/01/12 07:28:59;;;;;;;3.20;1.13;;;25.70;92.80;;;;;;5072942;28;20494;-57
2022/01/12 07:31:33;;;;;;;4.05;1.63;;;25.60;92.70;;;;;;5074029;28;20123;-61
2022/01/12 07:34:01;;;;;;;3.97;1.40;;;25.60;92.70;;;;;;5056005;28;20035;-67
2022/01/12 07:36:28;;;;;;;4.32;1.67;;;25.50;92.40;;;;;;5074567;28;20020;-66
2022/01/12 07:38:59;;;;;;;2.63;1.13;;;25.50;92.70;;;;;;5073978;28;20036;-65
2022/01/12 07:41:26;;;;;;;4.07;0.90;;;25.50;92.70;;;;;;5073072;28;20099;-64
2022/01/12 07:43:54;;;;;;;6.57;1.65;;;25.50;92.60;;;;;;5071940;28;20158;-67
2022/01/12 07:46:21;;;;;;;4.97;1.05;;;25.50;92.80;;;;;;5073751;28;20075;-61
2022/01/12 07:48:49;;;;;;;4.78;1.05;;;25.50;93.30;;;;;;5073736;28;20046;-65
2022/01/12 07:51:16;;;;;;;5.78;1.30;;;25.30;93.60;;;;;;5073602;28;20379;-63
2022/01/12 07:53:45;;;;;;;7.68;1.60;;;25.40;93.80;;;;;;5072810;28;20032;-58
2022/01/12 07:56:13;;;;;;;5.35;1.13;;;25.40;93.90;;;;;;5072958;28;20490;-60
2022/01/12 07:58:40;;;;;;;7.35;1.38;;;25.30;94.40;;;;;;5072499;28;20032;-56
2022/01/12 08:01:07;;;;;;;8.15;1.95;;;25.30;94.20;;;;;;5072849;28;20410;-61
2022/01/12 08:03:35;;;;;;;4.55;1.20;;;25.30;94.60;;;;;;5073075;28;20107;-55
2022/01/12 08:06:02;;;;;;;4.32;1.52;;;25.30;94.70;;;;;;5072969;28;20062;-60
2022/01/12 08:08:30;;;;;;;3.40;1.10;;;25.30;94.70;;;;;;5072823;28;20028;-59
2022/01/12 08:10:57;;;;;;;8.02;2.38;;;25.30;94.90;;;;;;5072901;28;20422;-59
2022/01/12 08:13:24;;;;;;;8.98;1.52;;;25.30;94.80;;;;;;5073716;28;20016;-61
2022/01/12 08:15:54;;;;;;;8.52;1.73;;;25.30;95.30;;;;;;5075361;28;20029;-60
2022/01/12 08:18:22;;;;;;;10.13;2.85;;;25.30;95.20;;;;;;5074247;28;20063;-62
2022/01/12 08:20:50;;;;;;;14.38;1.63;;;25.40;95.30;;;;;;5072488;28;20475;-57
2022/01/12 08:23:18;;;;;;;6.40;1.73;;;25.30;95.70;;;;;;5073274;28;20028;-60
2022/01/12 08:25:45;;;;;;;8.20;2.10;;;25.30;95.80;;;;;;5073249;28;20055;-63
2022/01/12 08:28:13;;;;;;;7.82;2.22;;;25.30;96.00;;;;;;5073160;28;20063;-61
2022/01/12 08:30:41;;;;;;;6.82;2.78;;;25.30;96.10;;;;;;5073542;28;20078;-62
2022/01/12 08:33:10;;;;;;;6.95;2.05;;;25.30;96.20;;;;;;5073362;28;20454;-63
2022/01/12 08:35:37;;;;;;;7.88;2.00;;;25.30;96.30;;;;;;5073147;28;20020;-59
2022/01/12 08:38:05;;;;;;;12.10;2.50;;;25.30;96.60;;;;;;5073391;28;20082;-62
2022/01/12 08:40:32;;;;;;;6.63;2.45;;;25.40;96.70;;;;;;5073345;28;20028;-61
2022/01/12 08:43:00;;;;;;;9.20;2.40;;;25.30;96.90;;;;;;5073555;28;20024;-57
2022/01/12 08:45:31;;;;;;;8.02;2.75;;;25.30;96.70;;;;;;5074170;28;20066;-64
2022/01/12 08:47:59;;;;;;;8.93;2.30;;;25.30;97.00;;;;;;5073908;28;20017;-63
2022/01/12 08:50:26;;;;;;;7.80;2.50;;;25.30;96.90;;;;;;5072873;28;20052;-62
2022/01/12 08:52:54;;;;;;;6.57;2.50;;;25.30;97.00;;;;;;5073022;28;20111;-60
2022/01/12 08:55:23;;;;;;;10.70;3.10;;;25.30;97.00;;;;;;5072752;28;20398;-58
2022/01/12 08:57:51;;;;;;;9.38;3.00;;;25.20;97.30;;;;;;5072958;28;20031;-63
2022/01/12 09:00:20;;;;;;;9.50;2.95;;;25.20;97.20;;;;;;5073281;28;20135;-65
2022/01/12 09:02:48;;;;;;;11.32;3.42;;;25.20;97.30;;;;;;5072732;28;20052;-59
2022/01/12 09:05:15;;;;;;;9.75;2.90;;;25.20;97.50;;;;;;5071618;28;20103;-52
2022/01/12 09:07:46;;;;;;;9.80;2.83;;;25.20;97.60;;;;;;5073100;28;20028;-66
2022/01/12 09:10:13;;;;;;;9.85;2.55;;;25.20;97.40;;;;;;5074391;28;20086;-61
2022/01/12 09:12:41;;;;;;;9.73;2.92;;;25.20;97.60;;;;;;5078257;28;20078;-55
2022/01/12 09:15:11;;;;;;;8.98;2.92;;;25.20;97.30;;;;;;5075374;28;20028;-60
2022/01/12 09:17:39;;;;;;;6.43;2.30;;;25.10;96.80;;;;;;5076295;28;20424;-55
2022/01/12 09:20:08;;;;;;;6.30;2.72;;;25.10;97.20;;;;;;5076480;28;20089;-61
2022/01/12 09:22:40;;;;;;;6.80;2.60;;;25.10;97.10;;;;;;5076900;28;20146;-62
2022/01/12 09:25:09;;;;;;;6.00;2.70;;;25.10;97.10;;;;;;5076677;28;20375;-61
2022/01/12 09:27:38;;;;;;;5.30;2.17;;;25.10;96.90;;;;;;5077095;28;20464;-58
2022/01/12 09:30:11;;;;;;;7.13;2.58;;;25.10;96.80;;;;;;5076860;28;20044;-56
2022/01/12 09:32:39;;;;;;;5.68;2.10;;;25.10;96.70;;;;;;5075414;28;20038;-56
2022/01/12 09:35:08;;;;;;;8.00;2.40;;;25.00;96.60;;;;;;5076470;28;20024;-61
2022/01/12 09:37:35;;;;;;;9.65;3.63;;;25.00;96.60;;;;;;5076498;28;20028;-60
2022/01/12 09:40:04;;;;;;;8.63;2.63;;;25.00;96.60;;;;;;5076402;28;20059;-58
2022/01/12 09:42:32;;;;;;;6.57;2.42;;;25.00;96.70;;;;;;5076073;28;20035;-53
2022/01/12 09:45:01;;;;;;;5.82;2.20;;;25.00;96.70;;;;;;5076319;28;20115;-60
2022/01/12 09:47:28;;;;;;;7.15;2.58;;;25.00;96.70;;;;;;5076586;28;20082;-58
2022/01/12 09:49:56;;;;;;;6.10;2.10;;;24.90;96.60;;;;;;5076023;28;20029;-62
2022/01/12 09:52:24;;;;;;;5.47;2.00;;;24.90;96.60;;;;;;5076267;28;20048;-62
2022/01/12 09:54:51;;;;;;;4.03;1.98;;;24.90;96.50;;;;;;5076892;28;20093;-63
2022/01/12 09:57:19;;;;;;;6.97;2.53;;;24.90;96.50;;;;;;5076572;28;20463;-63
2022/01/12 09:59:46;;;;;;;8.05;2.58;;;24.90;96.40;;;;;;5076369;28;20109;-61
2022/01/12 10:02:20;;;;;;;6.80;2.10;;;24.90;96.70;;;;;;5076018;28;20028;-60
2022/01/12 10:04:48;;;;;;;5.80;2.00;;;24.90;96.30;;;;;;5076362;28;20028;-64
2022/01/12 10:07:21;;;;;;;6.10;2.50;;;24.90;96.40;;;;;;5076295;28;20112;-61
2022/01/12 10:09:56;;;;;;;5.35;2.33;;;24.90;96.30;;;;;;5075901;28;20349;-62
2022/01/12 10:12:26;;;;;;;6.70;2.22;;;24.90;96.30;;;;;;5076082;28;20025;-60
2022/01/12 10:14:58;;;;;;;6.95;1.90;;;24.80;96.30;;;;;;5074654;28;20479;-53
2022/01/12 10:17:45;;;;;;;6.90;2.42;;;24.80;96.20;;;;;;5075472;28;20482;-60
2022/01/12 10:20:23;;;;;;;5.28;2.00;;;24.80;96.20;;;;;;5075404;28;20478;-61
2022/01/12 10:23:10;;;;;;;8.25;2.10;;;24.80;96.20;;;;;;5076372;28;20035;-57
2022/01/12 10:25:45;;;;;;;5.40;2.17;;;24.80;96.20;;;;;;5074541;28;20028;-62
2022/01/12 10:28:14;;;;;;;5.53;2.25;;;24.80;96.20;;;;;;5075647;28;20028;-63
2022/01/12 10:30:55;;;;;;;6.93;2.65;;;24.80;96.10;;;;;;5075782;28;20033;-52
2022/01/12 10:33:28;;;;;;;4.68;2.00;;;24.70;96.10;;;;;;5075513;28;20044;-61
2022/01/12 10:36:03;;;;;;;6.55;2.15;;;24.70;96.10;;;;;;5075280;28;20020;-58
2022/01/12 10:38:31;;;;;;;4.32;1.85;;;24.70;96.10;;;;;;5075029;28;20115;-62
2022/01/12 10:41:03;;;;;;;5.10;1.92;;;24.70;96.10;;;;;;5075230;28;20032;-64
2022/01/12 10:43:43;;;;;;;3.28;1.80;;;24.70;96.10;;;;;;5075305;28;20028;-63
2022/01/12 10:46:13;;;;;;;5.72;1.95;;;24.70;96.00;;;;;;5074744;28;20024;-62
2022/01/12 10:48:49;;;;;;;4.10;1.90;;;24.70;96.10;;;;;;5075338;28;20017;-61
2022/01/12 10:51:23;;;;;;;3.33;1.70;;;24.70;96.10;;;;;;5074166;28;20082;-54
2022/01/12 10:53:53;;;;;;;5.32;1.98;;;24.70;96.00;;;;;;5074860;28;20426;-61
2022/01/12 10:56:23;;;;;;;4.25;1.92;;;24.70;96.00;;;;;;5074680;28;20025;-65
2022/01/12 10:58:53;;;;;;;6.75;2.20;;;24.70;96.00;;;;;;5074518;28;20397;-61
2022/01/12 11:01:22;;;;;;;5.55;2.08;;;24.70;96.00;;;;;;5074403;28;20261;-58
2022/01/12 11:03:50;;;;;;;5.43;1.70;;;24.70;96.00;;;;;;5074743;28;20040;-62
2022/01/12 11:06:18;;;;;;;3.70;1.80;;;24.70;95.90;;;;;;5075349;28;20012;-59
2022/01/12 11:08:48;;;;;;;5.63;1.95;;;24.70;95.90;;;;;;5075082;28;20108;-61
2022/01/12 11:11:25;;;;;;;4.75;1.98;;;24.70;95.90;;;;;;5074631;28;20029;-62
2022/01/12 11:13:55;;;;;;;7.82;2.22;;;24.60;95.80;;;;;;5073324;28;20032;-59
2022/01/12 11:16:30;;;;;;;4.88;1.90;;;24.60;95.80;;;;;;5074690;28;20016;-63
2022/01/12 11:19:00;;;;;;;2.80;1.67;;;24.60;95.80;;;;;;5074720;28;20036;-63
2022/01/12 11:21:41;;;;;;;4.60;1.50;;;24.60;95.80;;;;;;5074629;28;20098;-64
2022/01/12 11:24:14;;;;;;;2.88;1.52;;;24.60;95.80;;;;;;5072989;28;20078;-63
2022/01/12 11:26:52;;;;;;;3.92;1.98;;;24.60;95.80;;;;;;5074280;28;20078;-59
2022/01/12 11:29:28;;;;;;;5.55;1.90;;;24.60;95.80;;;;;;5074027;28;20108;-56
2022/01/12 11:32:21;;;;;;;3.72;1.63;;;24.60;95.70;;;;;;5073972;28;20020;-63
2022/01/12 11:35:05;;;;;;;5.95;2.53;;;24.60;95.70;;;;;;5074225;28;20032;-59
2022/01/12 11:37:32;;;;;;;5.78;1.88;;;24.60;95.70;;;;;;5073646;28;20048;-58
2022/01/12 11:40:09;;;;;;;4.68;1.90;;;24.60;95.70;;;;;;5073606;28;20036;-59
2022/01/12 11:42:40;;;;;;;3.60;1.90;;;24.60;95.70;;;;;;5074312;28;20051;-60
2022/01/12 11:45:20;;;;;;;4.55;1.90;;;24.60;95.70;;;;;;5074626;28;20044;-59
2022/01/12 11:47:47;;;;;;;2.92;1.50;;;24.60;95.70;;;;;;5074354;28;20025;-61
2022/01/12 11:50:14;;;;;;;6.32;1.80;;;24.60;95.70;;;;;;5074589;28;20024;-60
2022/01/12 11:52:42;;;;;;;3.75;1.77;;;24.60;95.70;;;;;;5074317;28;20052;-62
2022/01/12 11:55:16;;;;;;;3.72;1.77;;;24.60;95.70;;;;;;5074319;28;20063;-62
2022/01/12 11:57:50;;;;;;;4.05;1.60;;;24.50;95.60;;;;;;5073931;28;20074;-63
2022/01/12 12:00:23;;;;;;;4.15;1.58;;;24.60;95.60;;;;;;5074317;28;20024;-58
2022/01/12 12:02:52;;;;;;;5.18;2.30;;;24.50;95.60;;;;;;5074303;28;20104;-62
2022/01/12 12:05:30;;;;;;;4.03;1.52;;;24.60;95.90;;;;;;5074682;28;20035;-59
2022/01/12 12:08:04;;;;;;;5.30;1.73;;;24.50;95.60;;;;;;5074875;28;20021;-57
2022/01/12 12:10:38;;;;;;;4.72;1.50;;;24.50;95.60;;;;;;5074039;28;20028;-63
2022/01/12 12:13:11;;;;;;;3.45;1.50;;;24.60;95.60;;;;;;5074068;28;20052;-63
2022/01/12 12:15:41;;;;;;;4.18;1.48;;;24.50;95.50;;;;;;5074504;28;20468;-63
2022/01/12 12:18:09;;;;;;;3.72;1.50;;;24.50;95.50;;;;;;5074291;28;20028;-61
2022/01/12 12:20:37;;;;;;;2.65;1.55;;;24.50;95.50;;;;;;5074201;28;20070;-61
2022/01/12 12:23:04;;;;;;;3.13;1.50;;;24.50;95.50;;;;;;5074318;28;20012;-62
2022/01/12 12:25:34;;;;;;;4.35;1.80;;;24.50;95.50;;;;;;5074049;28;20383;-62
2022/01/12 12:28:04;;;;;;;2.47;1.08;;;24.60;95.50;;;;;;5073582;28;20025;-61
2022/01/12 12:30:38;;;;;;;2.67;1.13;;;24.50;95.40;;;;;;5073421;28;20393;-63
2022/01/12 12:33:14;;;;;;;3.88;1.40;;;24.50;95.50;;;;;;5073302;28;20029;-62
2022/01/12 12:35:44;;;;;;;3.80;1.75;;;24.50;95.40;;;;;;5073820;28;20028;-60
2022/01/12 12:38:17;;;;;;;4.45;2.00;;;24.50;95.40;;;;;;5072792;28;20029;-60
2022/01/12 12:40:50;;;;;;;5.63;2.15;;;24.50;95.40;;;;;;5072879;28;20090;-60
2022/01/12 12:43:33;;;;;;;2.88;1.35;;;24.50;95.40;;;;;;5071718;28;20129;-60
2022/01/12 12:46:07;;;;;;;2.65;1.25;;;24.50;95.40;;;;;;5072762;28;20029;-61
2022/01/12 12:48:36;;;;;;;6.25;1.92;;;24.40;95.40;;;;;;5073026;28;20032;-61
2022/01/12 12:51:08;;;;;;;4.20;1.50;;;24.40;95.40;;;;;;5073285;28;20035;-57
2022/01/12 12:53:39;;;;;;;3.55;1.40;;;24.40;95.40;;;;;;5072712;28;20104;-59
2022/01/12 12:56:11;;;;;;;2.42;1.17;;;24.40;95.50;;;;;;5073237;28;20054;-57
2022/01/12 12:58:39;;;;;;;3.90;1.55;;;24.40;95.50;;;;;;5073162;28;20372;-58
2022/01/12 13:01:15;;;;;;;3.72;1.27;;;24.40;95.50;;;;;;5073860;28;20017;-63
2022/01/12 13:03:54;;;;;;;2.72;1.20;;;24.40;95.50;;;;;;5073026;28;20024;-59
2022/01/12 13:06:29;;;;;;;5.20;1.73;;;24.30;95.60;;;;;;5073001;28;20038;-61
2022/01/12 13:09:01;;;;;;;2.72;1.17;;;24.30;95.60;;;;;;5072785;28;20025;-59
2022/01/12 13:11:34;;;;;;;3.75;1.30;;;24.30;95.70;;;;;;5072604;28;20033;-57
2022/01/12 13:14:06;;;;;;;3.45;1.40;;;24.30;95.90;;;;;;5072593;28;20031;-58
2022/01/12 13:16:34;;;;;;;3.00;1.02;;;24.30;95.70;;;;;;5072682;28;20360;-58
2022/01/12 13:19:07;;;;;;;3.33;1.50;;;24.30;95.70;;;;;;5072550;28;20039;-60
2022/01/12 13:21:42;;;;;;;2.28;1.20;;;24.30;95.80;;;;;;5072641;28;20031;-60
2022/01/12 13:24:09;;;;;;;4.53;1.23;;;24.30;95.80;;;;;;5072623;28;20033;-61
2022/01/12 13:26:36;;;;;;;3.78;1.33;;;24.20;95.80;;;;;;5072885;28;20025;-61
2022/01/12 13:29:12;;;;;;;4.25;1.40;;;24.30;95.80;;;;;;5072538;28;20027;-58
2022/01/12 13:31:40;;;;;;;2.53;1.63;;;24.30;95.80;;;;;;5072407;28;20020;-57
2022/01/12 13:34:13;;;;;;;3.28;1.25;;;24.20;95.80;;;;;;5072345;28;20050;-57
2022/01/12 13:36:49;;;;;;;4.00;1.65;;;24.20;95.80;;;;;;5072580;28;20116;-55
2022/01/12 13:39:16;;;;;;;4.28;1.58;;;24.30;95.80;;;;;;5072528;28;20107;-56
2022/01/12 13:41:46;;;;;;;4.00;1.42;;;24.20;95.80;;;;;;5072461;28;20071;-57
2022/01/12 13:44:17;;;;;;;2.58;1.20;;;24.20;95.80;;;;;;5072171;28;20150;-60
2022/01/12 13:47:01;;;;;;;3.92;1.38;;;24.20;95.80;;;;;;5072373;28;20383;-60
2022/01/12 13:49:28;;;;;;;2.47;1.10;;;24.20;95.80;;;;;;5072444;28;20017;-52
2022/01/12 13:52:07;;;;;;;2.42;1.48;;;24.20;95.80;;;;;;5070659;28;20537;-50
2022/01/12 13:54:37;;;;;;;2.20;1.33;;;24.20;95.80;;;;;;5072257;28;20056;-46
2022/01/12 13:57:07;;;;;;;3.78;1.50;;;24.20;95.80;;;;;;5075022;28;20024;-46
2022/01/12 13:59:48;;;;;;;2.97;1.50;;;24.20;95.80;;;;;;5074363;28;20116;-49
2022/01/12 14:02:18;;;;;;;3.75;1.15;;;24.20;95.70;;;;;;5075524;28;20383;-58
2022/01/12 14:04:58;;;;;;;3.17;1.20;;;24.10;95.70;;;;;;5074188;28;20116;-61
2022/01/12 14:07:29;;;;;;;3.15;1.38;;;24.20;95.80;;;;;;5075604;28;20063;-58
2022/01/12 14:09:59;;;;;;;2.38;0.98;;;24.10;95.80;;;;;;5075488;28;20074;-56
2022/01/12 14:12:27;;;;;;;1.75;0.80;;;24.10;95.70;;;;;;5075384;28;20108;-56
2022/01/12 14:15:04;;;;;;;2.60;1.48;;;24.10;95.80;;;;;;5075476;28;20391;-61
2022/01/12 14:17:31;;;;;;;3.05;1.20;;;24.10;95.70;;;;;;5075392;28;20025;-58